createdAt,value
2022-08-16T00:00:04.541Z,24.6
2022-08-16T00:05:01.664Z,24.6
2022-08-16T00:10:01.825Z,24.6
2022-08-16T00:15:01.956Z,24.6
2022-08-16T00:20:02.127Z,24.6
2022-08-16T00:25:01.777Z,24.6
2022-08-16T00:30:08.432Z,24.6
2022-08-16T00:35:02.015Z,24.6
2022-08-16T00:40:02.288Z,24.6
2022-08-16T00:45:06.300Z,24.6
2022-08-16T00:50:02.489Z,24.6
2022-08-16T00:55:01.590Z,24.6
2022-08-16T01:00:01.745Z,24.6
2022-08-16T01:05:09.180Z,24.6
2022-08-16T01:10:02.054Z,24.6
2022-08-16T01:15:02.254Z,24.6
2022-08-16T01:20:02.340Z,24.6
2022-08-16T01:25:02.623Z,24.6
2022-08-16T01:30:01.590Z,24.6
2022-08-16T01:35:01.789Z,24.6
2022-08-16T01:40:02.011Z,24.6
2022-08-16T01:45:02.085Z,24.6
2022-08-16T01:50:41.482Z,24.6
2022-08-16T01:55:02.333Z,24.6
2022-08-16T02:00:02.109Z,24.6
2022-08-16T02:05:02.172Z,24.6
2022-08-16T02:10:02.399Z,24.6
2022-08-16T02:15:02.503Z,24.6
2022-08-16T02:20:01.630Z,24.6
2022-08-16T02:25:01.741Z,24.6
2022-08-16T02:30:04.844Z,24.6
2022-08-16T02:35:02.499Z,24.6
2022-08-16T02:40:02.664Z,24.6
2022-08-16T02:45:02.374Z,24.6
2022-08-16T02:50:52.958Z,24.6
2022-08-16T02:55:02.358Z,24.6
2022-08-16T03:00:05.008Z,24.6
2022-08-16T03:05:03.147Z,24.6
2022-08-16T03:10:03.178Z,24.6
2022-08-16T03:15:02.553Z,24.6
2022-08-16T03:20:03.226Z,24.6
2022-08-16T03:25:02.924Z,24.6
2022-08-16T03:30:02.520Z,24.6
2022-08-16T03:35:02.861Z,24.6
2022-08-16T03:40:02.536Z,24.6
2022-08-16T03:45:02.997Z,24.6
2022-08-16T03:50:02.948Z,24.6
2022-08-16T03:55:02.466Z,24.6
2022-08-16T04:00:05.526Z,24.6
2022-08-16T04:05:02.639Z,24.6
2022-08-16T04:10:35.721Z,24.6
2022-08-16T04:15:02.437Z,24.6
2022-08-16T04:20:01.973Z,24.6
2022-08-16T04:25:02.404Z,24.6
2022-08-16T04:30:02.627Z,24.6
2022-08-16T04:35:07.087Z,24.6
2022-08-16T04:40:05.536Z,24.6
2022-08-16T04:45:02.610Z,24.6
2022-08-16T04:50:02.343Z,24.6
2022-08-16T04:55:03.355Z,24.6
2022-08-16T05:00:31.392Z,24.6
2022-08-16T05:05:02.406Z,24.6
2022-08-16T05:10:02.572Z,24.6
2022-08-16T05:15:03.124Z,24.6
2022-08-16T05:20:02.141Z,24.6
2022-08-16T05:25:02.055Z,24.6
2022-08-16T05:30:04.921Z,24.6
2022-08-16T05:35:02.905Z,24.6
2022-08-16T05:40:06.019Z,24.6
2022-08-16T05:45:02.569Z,24.6
2022-08-16T05:50:02.674Z,24.6
2022-08-16T05:55:01.931Z,24.6
2022-08-16T06:00:07.160Z,24.6
2022-08-16T06:05:02.807Z,24.6
2022-08-16T06:10:02.996Z,20.6
2022-08-16T06:15:07.668Z,20.7
2022-08-16T06:20:02.597Z,20.8
2022-08-16T06:25:01.708Z,20.7
2022-08-16T06:30:01.937Z,20.7
2022-08-16T06:35:06.341Z,20.8
2022-08-16T06:40:03.152Z,20.9
2022-08-16T06:45:03.282Z,20.9
2022-08-16T06:50:03.323Z,21
2022-08-16T06:55:01.735Z,21.1
2022-08-16T07:00:02.102Z,21.3
2022-08-16T07:05:02.775Z,21.5
2022-08-16T07:10:08.590Z,21.8
2022-08-16T07:15:03.596Z,21.8
2022-08-16T07:20:30.559Z,21.9
2022-08-16T07:25:02.093Z,21.9
2022-08-16T07:30:02.728Z,22
2022-08-16T07:35:03.025Z,22
2022-08-16T07:40:11.271Z,22.2
2022-08-16T07:45:03.140Z,22.2
2022-08-16T07:50:05.084Z,22.4
2022-08-16T07:55:02.550Z,22.6
2022-08-16T08:00:01.850Z,22.8
2022-08-16T08:05:03.562Z,22.9
2022-08-16T08:10:03.862Z,23.3
2022-08-16T08:15:03.045Z,23.6
2022-08-16T08:20:02.377Z,23.5
2022-08-16T08:25:03.506Z,24
2022-08-16T08:30:09.364Z,24.2
2022-08-16T08:35:03.060Z,24.5
2022-08-16T08:40:02.668Z,25
2022-08-16T08:45:02.936Z,25.2
2022-08-16T08:50:02.404Z,25.6
2022-08-16T08:55:02.344Z,25.7
2022-08-16T09:00:02.733Z,25.6
2022-08-16T09:05:15.151Z,25.5
2022-08-16T09:10:06.507Z,25.3
2022-08-16T09:15:02.790Z,25.3
2022-08-16T09:20:04.745Z,25.3
2022-08-16T09:25:10.068Z,25.2
2022-08-16T09:30:02.757Z,25.4
2022-08-16T09:35:02.620Z,25.6
2022-08-16T09:40:02.685Z,26.1
2022-08-16T09:45:09.962Z,26.7
2022-08-16T09:50:02.109Z,27
2022-08-16T09:55:02.273Z,27.4
2022-08-16T10:00:02.452Z,27.7
2022-08-16T10:05:03.359Z,28.2
2022-08-16T10:10:02.476Z,28.6
2022-08-16T10:15:02.737Z,28.9
2022-08-16T10:20:02.151Z,29.1
2022-08-16T10:25:02.202Z,29.2
2022-08-16T10:30:07.274Z,29.3
2022-08-16T10:35:02.588Z,29.9
2022-08-16T10:40:02.839Z,29.9
2022-08-16T10:45:03.100Z,30.2
2022-08-16T10:50:02.334Z,30.3
2022-08-16T11:00:02.083Z,30.1
2022-08-16T11:05:07.189Z,29.9
2022-08-16T11:15:18.613Z,29.7
2022-08-16T11:20:40.921Z,29.7
2022-08-16T11:26:06.326Z,30.1
2022-08-16T11:30:02.548Z,30.3
2022-08-16T11:35:10.079Z,30.4
2022-08-16T11:40:02.801Z,30.8
2022-08-16T11:45:02.800Z,30.7
2022-08-16T11:50:02.552Z,30.9
2022-08-16T11:55:02.331Z,31.1
2022-08-16T12:00:02.912Z,31.2
2022-08-16T12:05:03.363Z,31.3
2022-08-16T12:10:02.608Z,30.8
2022-08-16T12:15:02.778Z,30.3
2022-08-16T12:20:02.065Z,30
2022-08-16T12:25:02.167Z,30.4
2022-08-16T12:30:02.343Z,30.9
2022-08-16T12:35:03.311Z,31.3
2022-08-16T12:40:02.649Z,31.5
2022-08-16T12:45:02.727Z,31
2022-08-16T12:50:01.995Z,31
2022-08-16T12:55:02.223Z,30.8
2022-08-16T13:00:03.343Z,31.1
2022-08-16T13:05:03.208Z,31.6
2022-08-16T13:10:07.453Z,32
2022-08-16T13:15:02.749Z,32
2022-08-16T13:20:11.092Z,31.9
2022-08-16T13:25:02.150Z,31.8
2022-08-16T13:30:02.343Z,31.6
2022-08-16T13:35:02.666Z,31.5
2022-08-16T13:40:02.920Z,31.5
2022-08-16T13:45:03.070Z,31.6
2022-08-16T13:50:02.420Z,30.8
2022-08-16T13:55:02.525Z,30.5
2022-08-16T14:00:01.731Z,30.8
2022-08-16T14:05:02.987Z,30.3
2022-08-16T14:10:03.122Z,30.2
2022-08-16T14:15:03.071Z,29.6
2022-08-16T14:20:02.329Z,29.2
2022-08-16T14:25:03.142Z,28.7
2022-08-16T14:30:02.693Z,28.5
2022-08-16T14:35:02.740Z,28.6
2022-08-16T14:40:04.954Z,28.8
2022-08-16T14:45:02.934Z,28.7
2022-08-16T14:50:02.247Z,28.9
2022-08-16T14:55:02.383Z,28.9
2022-08-16T15:00:06.267Z,28.9
2022-08-16T15:05:03.079Z,28.9
2022-08-16T15:10:03.488Z,28.9
2022-08-16T15:15:04.316Z,28.9
2022-08-16T15:20:02.211Z,28.9
2022-08-16T15:25:02.333Z,28.9
2022-08-16T15:30:02.479Z,28.9
2022-08-16T15:35:03.671Z,28.9
2022-08-16T15:40:03.194Z,28.9
2022-08-16T15:45:03.323Z,28.9
2022-08-16T15:50:02.613Z,28.9
2022-08-16T15:55:07.317Z,28.9
2022-08-16T16:00:05.065Z,28.9
2022-08-16T16:05:04.219Z,28.9
2022-08-16T16:10:04.435Z,28.9
2022-08-16T16:15:03.375Z,28.9
2022-08-16T16:20:02.563Z,28.9
2022-08-16T16:25:01.696Z,28.9
2022-08-16T16:30:02.214Z,28.9
2022-08-16T16:35:02.747Z,28.9
2022-08-16T16:40:03.033Z,28.9
2022-08-16T16:45:03.250Z,28.9
2022-08-16T16:50:02.462Z,28.9
2022-08-16T16:55:02.617Z,28.9
2022-08-16T17:00:04.583Z,28.9
2022-08-16T17:05:02.700Z,28.9
2022-08-16T17:10:02.716Z,28.9
2022-08-16T17:15:02.996Z,28.9
2022-08-16T17:20:02.320Z,28.9
2022-08-16T17:25:02.460Z,28.9
2022-08-16T17:30:03.567Z,28.9
2022-08-16T17:35:08.771Z,28.9
2022-08-16T17:40:03.774Z,28.9
2022-08-16T17:45:03.508Z,28.9
2022-08-16T17:50:02.355Z,28.9
2022-08-16T17:55:01.893Z,28.9
2022-08-16T18:00:02.141Z,28.9
2022-08-16T18:05:03.317Z,28.9
2022-08-16T18:10:02.821Z,28.9
2022-08-16T18:15:03.113Z,28.9
2022-08-16T18:20:02.332Z,28.9
2022-08-16T18:25:02.486Z,28.9
2022-08-16T18:30:02.712Z,28.9
2022-08-16T18:35:02.616Z,28.9
2022-08-16T18:40:02.732Z,28.9
2022-08-16T18:45:02.993Z,28.9
2022-08-16T18:50:02.235Z,28.9
2022-08-16T18:55:14.312Z,28.9
2022-08-16T19:00:02.575Z,28.9
2022-08-16T19:05:02.525Z,28.9
2022-08-16T19:10:02.684Z,28.9
2022-08-16T19:15:02.981Z,28.9
2022-08-16T19:20:04.844Z,28.9
2022-08-16T19:25:02.384Z,28.9
2022-08-16T19:30:02.564Z,28.9
2022-08-16T19:35:02.473Z,28.9
2022-08-16T19:40:02.628Z,28.9
2022-08-16T19:45:02.860Z,28.9
2022-08-16T19:50:02.225Z,28.9
2022-08-16T19:55:02.323Z,28.9
2022-08-16T20:00:02.552Z,28.9
2022-08-16T20:05:03.352Z,28.9
2022-08-16T20:10:02.589Z,28.9
2022-08-16T20:15:02.756Z,28.9
2022-08-16T20:20:02.008Z,28.9
2022-08-16T20:25:02.190Z,28.9
2022-08-16T20:30:04.863Z,28.9
2022-08-16T20:35:03.577Z,28.9
2022-08-16T20:40:05.736Z,28.9
2022-08-16T20:45:03.136Z,28.9
2022-08-16T20:50:02.525Z,28.9
2022-08-16T20:55:02.825Z,28.9
2022-08-16T21:00:01.896Z,28.9
2022-08-16T21:05:02.117Z,28.9
2022-08-16T21:10:02.477Z,28.9
2022-08-16T21:15:01.699Z,28.9
2022-08-16T21:20:02.576Z,28.9
2022-08-16T21:25:02.032Z,28.9
2022-08-16T21:30:02.281Z,28.9
2022-08-16T21:35:03.254Z,28.9
2022-08-16T21:40:03.389Z,28.9
2022-08-16T21:45:02.742Z,28.9
2022-08-16T21:50:01.891Z,28.9
2022-08-16T21:55:02.409Z,28.9
2022-08-16T22:00:02.730Z,28.9
2022-08-16T22:05:02.561Z,28.9
2022-08-16T22:11:01.230Z,28.9
2022-08-16T22:15:02.203Z,28.9
2022-08-16T22:20:01.863Z,28.9
2022-08-16T22:25:02.423Z,28.9
2022-08-16T22:30:02.707Z,28.9
2022-08-16T22:35:11.041Z,28.9
2022-08-16T22:40:01.892Z,28.9
2022-08-16T22:45:01.914Z,28.9
2022-08-16T22:50:02.113Z,28.9
2022-08-16T22:55:02.470Z,28.9
2022-08-16T23:00:03.155Z,28.9
2022-08-16T23:05:18.824Z,28.9
2022-08-16T23:10:08.643Z,28.9
2022-08-16T23:15:01.912Z,28.9
2022-08-16T23:20:01.815Z,28.9
2022-08-16T23:25:02.524Z,28.9
2022-08-16T23:30:02.706Z,28.9
2022-08-16T23:35:02.068Z,28.9
2022-08-16T23:40:02.278Z,28.9
2022-08-16T23:45:02.392Z,28.9
2022-08-16T23:50:04.102Z,28.9
2022-08-16T23:55:01.998Z,28.9
